createdAt,value
2023-04-07T00:02:03.831Z,57.82
2023-04-07T00:04:30.373Z,57.79
2023-04-07T00:06:56.903Z,57.84
2023-04-07T00:09:23.311Z,57.81
2023-04-07T00:11:49.758Z,57.88
2023-04-07T00:14:16.228Z,58.06
2023-04-07T00:16:42.735Z,57.86
2023-04-07T00:19:09.192Z,57.98
2023-04-07T00:21:35.657Z,58.00
2023-04-07T00:24:02.111Z,58.06
2023-04-07T00:26:31.434Z,58.10
2023-04-07T00:28:58.873Z,58.07
2023-04-07T00:31:25.735Z,57.98
2023-04-07T00:33:52.289Z,58.04
2023-04-07T00:36:18.744Z,58.03
2023-04-07T00:38:45.315Z,58.22
2023-04-07T00:41:11.749Z,58.41
2023-04-07T00:43:38.258Z,58.58
2023-04-07T00:46:04.922Z,58.50
2023-04-07T00:48:31.588Z,58.60
2023-04-07T00:50:58.070Z,58.49
2023-04-07T00:53:24.694Z,58.73
2023-04-07T00:55:51.259Z,58.90
2023-04-07T00:58:17.764Z,58.87
2023-04-07T01:00:50.665Z,59.57
2023-04-07T01:03:33.933Z,59.80
2023-04-07T01:06:06.755Z,59.63
2023-04-07T01:08:47.923Z,59.71
2023-04-07T01:11:28.363Z,59.88
2023-04-07T01:13:55.372Z,58.79
2023-04-07T01:16:30.367Z,59.78
2023-04-07T01:19:01.757Z,59.63
2023-04-07T01:21:29.618Z,58.91
2023-04-07T01:24:03.744Z,59.60
2023-04-07T01:26:33.450Z,58.67
2023-04-07T01:29:32.342Z,59.88
2023-04-07T01:32:02.185Z,58.90
2023-04-07T01:34:31.554Z,59.28
2023-04-07T01:36:59.441Z,58.90
2023-04-07T01:39:27.821Z,59.11
2023-04-07T01:41:56.097Z,59.04
2023-04-07T01:44:23.055Z,59.21
2023-04-07T01:46:53.122Z,59.21
2023-04-07T01:49:20.351Z,59.53
2023-04-07T01:51:50.645Z,59.33
2023-04-07T01:54:18.136Z,59.58
2023-04-07T01:56:45.124Z,59.56
2023-04-07T01:59:12.099Z,59.57
2023-04-07T02:01:38.839Z,59.30
2023-04-07T02:04:19.574Z,60.32
2023-04-07T02:06:54.958Z,60.37
2023-04-07T02:09:24.240Z,59.54
2023-04-07T02:11:52.255Z,59.87
2023-04-07T02:14:21.422Z,59.65
2023-04-07T02:16:49.179Z,59.84
2023-04-07T02:19:15.821Z,59.92
2023-04-07T02:21:43.102Z,59.78
2023-04-07T02:24:11.970Z,60.31
2023-04-07T02:26:38.650Z,59.80
2023-04-07T02:29:05.622Z,59.85
2023-04-07T02:31:32.267Z,59.90
2023-04-07T02:33:58.739Z,59.88
2023-04-07T02:36:26.308Z,59.73
2023-04-07T02:38:52.805Z,59.91
2023-04-07T02:41:19.224Z,60.03
2023-04-07T02:43:46.005Z,60.16
2023-04-07T02:46:13.286Z,60.01
2023-04-07T02:48:41.230Z,60.15
2023-04-07T02:51:07.747Z,60.19
2023-04-07T02:53:34.262Z,60.09
2023-04-07T02:56:00.694Z,60.20
2023-04-07T02:58:27.126Z,60.36
2023-04-07T03:00:53.844Z,60.20
2023-04-07T03:03:20.990Z,60.23
2023-04-07T03:05:47.621Z,60.50
2023-04-07T03:08:14.100Z,60.36
2023-04-07T03:10:40.852Z,60.54
2023-04-07T03:13:08.286Z,60.51
2023-04-07T03:15:34.796Z,60.81
2023-04-07T03:18:01.319Z,60.82
2023-04-07T03:20:27.847Z,61.02
2023-04-07T03:22:54.256Z,60.94
2023-04-07T03:25:21.278Z,60.67
2023-04-07T03:27:47.702Z,60.89
2023-04-07T03:30:14.270Z,61.17
2023-04-07T03:32:40.715Z,60.97
2023-04-07T03:35:07.723Z,60.93
2023-04-07T03:37:34.160Z,61.20
2023-04-07T03:40:00.585Z,61.26
2023-04-07T03:42:26.993Z,61.39
2023-04-07T03:44:53.389Z,61.75
2023-04-07T03:47:19.824Z,61.60
2023-04-07T03:49:46.292Z,61.86
2023-04-07T03:52:12.757Z,61.80
2023-04-07T03:54:39.295Z,61.76
2023-04-07T03:57:05.781Z,61.78
2023-04-07T03:59:32.341Z,61.96
2023-04-07T04:04:33.426Z,61.81
2023-04-07T04:06:59.933Z,61.94
2023-04-07T04:09:26.515Z,61.84
2023-04-07T04:11:53.058Z,61.84
2023-04-07T04:14:19.670Z,62.00
2023-04-07T04:16:46.180Z,62.05
2023-04-07T04:19:12.703Z,62.03
2023-04-07T04:21:39.242Z,62.04
2023-04-07T04:24:05.803Z,61.92
2023-04-07T04:26:32.331Z,62.15
2023-04-07T04:28:58.856Z,61.84
2023-04-07T04:31:31.974Z,62.29
2023-04-07T04:33:58.484Z,61.96
2023-04-07T04:36:24.982Z,62.25
2023-04-07T04:38:51.693Z,62.19
2023-04-07T04:41:18.244Z,62.36
2023-04-07T04:43:45.229Z,62.17
2023-04-07T04:46:11.921Z,62.65
2023-04-07T04:48:38.372Z,62.66
2023-04-07T04:51:05.302Z,62.84
2023-04-07T04:53:32.579Z,62.68
2023-04-07T04:55:59.086Z,62.72
2023-04-07T04:58:25.720Z,62.73
2023-04-07T05:00:58.125Z,63.15
2023-04-07T05:03:26.556Z,62.85
2023-04-07T05:05:53.337Z,62.78
2023-04-07T05:08:19.915Z,62.87
2023-04-07T05:10:47.721Z,63.13
2023-04-07T05:13:14.543Z,63.11
2023-04-07T05:15:41.998Z,62.98
2023-04-07T05:18:08.559Z,63.24
2023-04-07T05:20:35.718Z,63.17
2023-04-07T05:23:09.801Z,63.02
2023-04-07T05:25:36.955Z,63.33
2023-04-07T05:28:03.617Z,63.32
2023-04-07T05:30:30.187Z,63.24
2023-04-07T05:32:56.877Z,63.37
2023-04-07T05:35:23.939Z,63.35
2023-04-07T05:37:53.219Z,64.29
2023-04-07T05:40:20.265Z,63.63
2023-04-07T05:42:46.793Z,63.51
2023-04-07T05:45:13.590Z,63.76
2023-04-07T05:47:40.491Z,63.84
2023-04-07T05:50:07.554Z,63.67
2023-04-07T05:52:34.106Z,63.90
2023-04-07T05:55:00.591Z,63.87
2023-04-07T05:57:28.468Z,63.98
2023-04-07T05:59:55.223Z,64.00
2023-04-07T06:02:21.788Z,63.96
2023-04-07T06:04:48.494Z,63.87
2023-04-07T06:07:15.181Z,64.21
2023-04-07T06:09:42.675Z,64.02
2023-04-07T06:12:10.717Z,64.12
2023-04-07T06:14:37.230Z,64.05
2023-04-07T06:17:03.985Z,64.20
2023-04-07T06:19:30.555Z,64.43
2023-04-07T06:21:57.109Z,64.43
2023-04-07T06:24:25.217Z,64.38
2023-04-07T06:26:54.926Z,64.77
2023-04-07T06:29:21.975Z,64.27
2023-04-07T06:31:48.537Z,64.12
2023-04-07T06:34:15.046Z,64.25
2023-04-07T06:36:41.562Z,64.18
2023-04-07T06:39:08.098Z,64.52
2023-04-07T06:41:34.684Z,64.51
2023-04-07T06:44:13.083Z,65.36
2023-04-07T06:46:39.717Z,64.60
2023-04-07T06:49:06.499Z,64.53
2023-04-07T06:51:33.109Z,64.68
2023-04-07T06:53:59.738Z,64.46
2023-04-07T06:56:27.129Z,64.37
2023-04-07T06:58:53.836Z,64.43
2023-04-07T07:01:20.530Z,64.45
2023-04-07T07:03:47.572Z,64.31
2023-04-07T07:06:14.488Z,64.61
2023-04-07T07:08:41.246Z,64.69
2023-04-07T07:11:07.875Z,64.75
2023-04-07T07:13:34.412Z,64.69
2023-04-07T07:16:01.025Z,64.82
2023-04-07T07:18:28.140Z,64.82
2023-04-07T07:20:55.878Z,64.45
2023-04-07T07:23:22.456Z,64.56
2023-04-07T07:25:48.953Z,64.70
2023-04-07T07:28:16.302Z,64.81
2023-04-07T07:30:42.941Z,64.95
2023-04-07T07:33:09.603Z,64.86
2023-04-07T07:35:38.006Z,65.13
2023-04-07T07:38:04.774Z,65.02
2023-04-07T07:40:31.349Z,65.05
2023-04-07T07:42:57.932Z,64.87
2023-04-07T07:45:24.703Z,65.35
2023-04-07T07:47:51.334Z,65.20
2023-04-07T07:50:17.939Z,65.49
2023-04-07T07:52:44.507Z,65.38
2023-04-07T07:55:11.373Z,65.45
2023-04-07T07:57:37.853Z,65.64
2023-04-07T08:00:04.794Z,65.39
2023-04-07T08:02:32.790Z,65.40
2023-04-07T08:05:00.584Z,65.26
2023-04-07T08:07:27.497Z,65.41
2023-04-07T08:09:53.940Z,65.49
2023-04-07T08:12:20.475Z,65.17
2023-04-07T08:14:47.133Z,65.11
2023-04-07T08:17:13.678Z,65.08
2023-04-07T08:19:40.298Z,65.25
2023-04-07T08:22:06.720Z,65.50
2023-04-07T08:24:33.189Z,65.34
2023-04-07T08:26:59.825Z,65.59
2023-04-07T08:29:26.329Z,65.38
2023-04-07T08:31:52.978Z,65.20
2023-04-07T08:34:21.200Z,65.16
2023-04-07T08:36:47.780Z,65.21
2023-04-07T08:39:14.405Z,65.42
2023-04-07T08:41:42.451Z,65.68
2023-04-07T08:44:10.612Z,65.55
2023-04-07T08:46:41.056Z,65.77
2023-04-07T08:49:13.964Z,65.61
2023-04-07T08:51:48.504Z,66.20
2023-04-07T08:54:18.695Z,65.61
2023-04-07T08:56:45.986Z,65.48
2023-04-07T08:59:14.561Z,65.32
2023-04-07T09:01:41.959Z,65.00
2023-04-07T09:04:10.400Z,65.02
2023-04-07T09:06:38.074Z,64.77
2023-04-07T09:09:07.992Z,64.68
2023-04-07T09:11:37.232Z,65.06
2023-04-07T09:14:03.904Z,65.17
2023-04-07T09:16:33.781Z,65.13
2023-04-07T09:19:00.503Z,65.04
2023-04-07T09:21:30.064Z,65.18
2023-04-07T09:23:56.843Z,65.09
2023-04-07T09:26:25.750Z,64.89
2023-04-07T09:28:56.778Z,64.93
2023-04-07T09:31:26.534Z,65.07
2023-04-07T09:33:53.441Z,65.13
2023-04-07T09:36:20.508Z,65.06
2023-04-07T09:38:46.909Z,64.83
2023-04-07T09:41:16.341Z,64.69
2023-04-07T09:43:45.377Z,64.49
2023-04-07T09:46:17.218Z,64.34
2023-04-07T09:48:45.758Z,64.20
2023-04-07T09:51:13.927Z,64.38
2023-04-07T09:53:51.651Z,64.47
2023-04-07T09:56:22.364Z,64.00
2023-04-07T09:58:53.291Z,63.92
2023-04-07T10:01:21.956Z,63.60
2023-04-07T10:03:49.328Z,63.75
2023-04-07T10:06:16.650Z,63.53
2023-04-07T10:08:43.888Z,63.47
2023-04-07T10:11:10.978Z,63.54
2023-04-07T10:13:40.329Z,62.76
2023-04-07T10:16:08.091Z,62.17
2023-04-07T10:18:36.805Z,61.72
2023-04-07T10:21:06.964Z,61.78
2023-04-07T10:23:56.708Z,61.53
2023-04-07T10:26:26.584Z,61.48
2023-04-07T10:29:00.367Z,60.63
2023-04-07T10:31:27.329Z,60.71
2023-04-07T10:33:54.891Z,60.62
2023-04-07T10:36:22.286Z,60.91
2023-04-07T10:39:07.315Z,60.59
2023-04-07T10:41:41.390Z,61.02
2023-04-07T10:44:09.984Z,60.99
2023-04-07T10:46:56.658Z,60.47
2023-04-07T10:49:23.109Z,60.85
2023-04-07T10:52:12.560Z,60.46
2023-04-07T10:54:39.880Z,60.77
2023-04-07T10:57:18.416Z,60.38
2023-04-07T11:00:29.660Z,60.52
2023-04-07T11:05:28.980Z,61.14
2023-04-07T11:07:55.528Z,61.08
2023-04-07T11:10:23.023Z,60.94
2023-04-07T11:13:05.143Z,60.99
2023-04-07T11:15:32.342Z,60.81
2023-04-07T11:18:13.495Z,60.54
2023-04-07T11:20:55.161Z,60.50
2023-04-07T11:23:23.831Z,61.30
2023-04-07T11:25:52.276Z,62.31
2023-04-07T11:28:18.955Z,62.43
2023-04-07T11:30:48.901Z,61.63
2023-04-07T11:33:21.418Z,59.82
2023-04-07T11:35:51.857Z,59.83
2023-04-07T11:38:19.252Z,59.68
2023-04-07T11:40:46.962Z,59.23
2023-04-07T11:43:24.954Z,58.85
2023-04-07T11:46:09.370Z,58.66
2023-04-07T11:48:37.236Z,59.40
2023-04-07T11:51:04.498Z,59.27
2023-04-07T11:53:38.133Z,58.24
2023-04-07T11:56:16.690Z,57.59
2023-04-07T11:58:49.723Z,56.99
2023-04-07T12:01:16.346Z,57.90
2023-04-07T12:03:57.351Z,56.46
2023-04-07T12:06:34.533Z,55.97
2023-04-07T12:09:02.687Z,57.00
2023-04-07T12:11:30.005Z,57.25
2023-04-07T12:13:57.087Z,57.05
2023-04-07T12:16:24.200Z,56.56
2023-04-07T12:18:51.592Z,55.77
2023-04-07T12:21:18.851Z,55.27
2023-04-07T12:23:47.507Z,55.36
2023-04-07T12:26:14.318Z,55.43
2023-04-07T12:28:40.779Z,55.55
2023-04-07T12:31:07.201Z,55.17
2023-04-07T12:33:33.601Z,54.12
2023-04-07T12:36:00.170Z,53.86
2023-04-07T12:38:26.957Z,53.35
2023-04-07T12:40:53.762Z,53.16
2023-04-07T12:43:20.176Z,52.53
2023-04-07T12:45:47.160Z,52.08
2023-04-07T12:48:13.703Z,52.06
2023-04-07T12:50:40.349Z,51.60
2023-04-07T12:53:06.781Z,51.15
2023-04-07T12:55:33.496Z,51.30
2023-04-07T12:58:00.458Z,51.52
2023-04-07T13:00:26.994Z,51.51
2023-04-07T13:02:53.503Z,51.69
2023-04-07T13:05:20.051Z,52.20
2023-04-07T13:07:48.274Z,51.68
2023-04-07T13:10:16.103Z,52.47
2023-04-07T13:12:42.477Z,52.23
2023-04-07T13:15:09.069Z,52.45
2023-04-07T13:17:38.740Z,52.48
2023-04-07T13:20:06.417Z,52.36
2023-04-07T13:22:34.736Z,51.99
2023-04-07T13:25:02.369Z,51.40
2023-04-07T13:27:28.867Z,51.42
2023-04-07T13:29:55.690Z,51.67
2023-04-07T13:32:22.209Z,52.02
2023-04-07T13:34:48.813Z,53.13
2023-04-07T13:37:16.513Z,54.28
2023-04-07T13:39:42.982Z,55.72
2023-04-07T13:42:11.449Z,56.44
2023-04-07T13:44:40.020Z,55.17
2023-04-07T13:47:06.656Z,53.94
2023-04-07T13:49:33.092Z,51.77
2023-04-07T13:51:59.564Z,49.24
2023-04-07T13:54:25.999Z,47.87
2023-04-07T13:56:52.753Z,45.76
2023-04-07T13:59:19.235Z,44.09
2023-04-07T14:01:45.713Z,42.63
2023-04-07T14:04:12.511Z,42.76
2023-04-07T14:06:38.973Z,43.63
2023-04-07T14:09:06.432Z,43.11
2023-04-07T14:11:34.651Z,42.46
2023-04-07T14:14:01.926Z,40.83
2023-04-07T14:16:28.577Z,39.01
2023-04-07T14:18:55.913Z,39.21
2023-04-07T14:21:22.828Z,39.54
2023-04-07T14:23:50.999Z,39.69
2023-04-07T14:26:20.026Z,40.52
2023-04-07T14:28:47.501Z,41.41
2023-04-07T14:31:16.033Z,41.45
2023-04-07T14:33:43.718Z,41.00
2023-04-07T14:36:10.460Z,40.53
2023-04-07T14:38:37.009Z,39.82
2023-04-07T14:43:33.519Z,39.28
2023-04-07T14:46:00.055Z,38.99
2023-04-07T14:48:26.637Z,37.08
2023-04-07T14:51:06.105Z,36.77
2023-04-07T14:53:34.977Z,36.43
2023-04-07T14:56:04.673Z,34.48
2023-04-07T14:58:31.917Z,35.08
2023-04-07T15:00:58.436Z,35.21
2023-04-07T15:03:25.115Z,34.67
2023-04-07T15:05:51.650Z,35.49
2023-04-07T15:08:18.056Z,36.02
2023-04-07T15:10:44.422Z,36.62
2023-04-07T15:13:11.106Z,35.83
2023-04-07T15:15:37.480Z,35.55
2023-04-07T15:18:04.379Z,35.36
2023-04-07T15:20:30.855Z,35.23
2023-04-07T15:22:57.338Z,34.95
2023-04-07T15:25:23.782Z,34.94
2023-04-07T15:27:50.245Z,34.54
2023-04-07T15:30:16.712Z,34.26
2023-04-07T15:32:56.522Z,33.75
2023-04-07T15:35:23.009Z,34.12
2023-04-07T15:37:49.468Z,33.41
2023-04-07T15:40:16.015Z,33.30
2023-04-07T15:42:42.450Z,32.63
2023-04-07T15:45:09.777Z,31.91
2023-04-07T15:47:36.295Z,32.47
2023-04-07T15:50:02.966Z,32.49
2023-04-07T15:52:30.724Z,33.44
2023-04-07T15:54:57.297Z,33.25
2023-04-07T15:57:23.776Z,33.05
2023-04-07T15:59:50.240Z,34.05
2023-04-07T16:02:16.774Z,33.98
2023-04-07T16:04:44.694Z,34.41
2023-04-07T16:07:11.286Z,34.76
2023-04-07T16:09:37.792Z,34.98
2023-04-07T16:12:04.492Z,35.71
2023-04-07T16:14:31.257Z,35.66
2023-04-07T16:17:00.826Z,35.87
2023-04-07T16:19:27.885Z,36.31
2023-04-07T16:21:54.830Z,36.80
2023-04-07T16:24:22.149Z,37.44
2023-04-07T16:26:50.584Z,37.77
2023-04-07T16:29:17.972Z,38.34
2023-04-07T16:31:44.697Z,38.71
2023-04-07T16:34:12.108Z,39.13
2023-04-07T16:36:39.152Z,39.72
2023-04-07T16:39:05.991Z,39.85
2023-04-07T16:41:32.986Z,39.81
2023-04-07T16:43:59.475Z,40.38
2023-04-07T16:46:29.904Z,40.82
2023-04-07T16:48:56.552Z,41.05
2023-04-07T16:51:24.760Z,41.19
2023-04-07T16:53:51.355Z,41.30
2023-04-07T16:56:22.828Z,42.03
2023-04-07T16:58:50.353Z,41.98
2023-04-07T17:01:18.174Z,42.08
2023-04-07T17:03:48.332Z,42.51
2023-04-07T17:06:16.520Z,42.56
2023-04-07T17:08:43.969Z,42.88
2023-04-07T17:11:13.194Z,42.91
2023-04-07T17:13:40.283Z,43.43
2023-04-07T17:16:07.076Z,43.45
2023-04-07T17:18:33.903Z,43.84
2023-04-07T17:21:00.580Z,43.97
2023-04-07T17:23:28.283Z,44.15
2023-04-07T17:25:54.896Z,44.09
2023-04-07T17:28:21.494Z,44.21
2023-04-07T17:30:48.106Z,44.47
2023-04-07T17:33:14.620Z,44.57
2023-04-07T17:35:41.141Z,44.58
2023-04-07T17:38:07.691Z,44.78
2023-04-07T17:40:34.176Z,44.79
2023-04-07T17:43:00.809Z,45.14
2023-04-07T17:45:27.471Z,45.14
2023-04-07T17:47:54.914Z,45.41
2023-04-07T17:50:21.519Z,45.89
2023-04-07T17:52:47.902Z,46.12
2023-04-07T17:55:14.531Z,46.48
2023-04-07T17:57:41.838Z,46.56
2023-04-07T18:00:09.080Z,46.64
2023-04-07T18:02:35.868Z,46.60
2023-04-07T18:05:05.862Z,46.74
2023-04-07T18:07:32.488Z,46.88
2023-04-07T18:09:59.128Z,47.23
2023-04-07T18:12:25.803Z,47.25
2023-04-07T18:14:52.420Z,47.64
2023-04-07T18:17:18.960Z,47.92
2023-04-07T18:19:45.538Z,47.62
2023-04-07T18:22:12.130Z,47.78
2023-04-07T18:24:38.677Z,47.78
2023-04-07T18:27:05.442Z,48.00
2023-04-07T18:29:32.054Z,48.36
2023-04-07T18:31:58.572Z,48.56
2023-04-07T18:34:26.196Z,48.54
2023-04-07T18:36:53.742Z,48.45
2023-04-07T18:39:20.257Z,48.57
2023-04-07T18:41:48.325Z,48.85
2023-04-07T18:44:14.904Z,48.96
2023-04-07T18:46:41.472Z,49.34
2023-04-07T18:49:08.099Z,49.27
2023-04-07T18:51:35.118Z,49.37
2023-04-07T18:54:01.661Z,49.53
2023-04-07T18:56:29.857Z,49.73
2023-04-07T18:58:56.460Z,49.64
2023-04-07T19:01:23.041Z,50.11
2023-04-07T19:03:49.753Z,50.05
2023-04-07T19:06:16.855Z,50.06
2023-04-07T19:08:43.402Z,50.08
2023-04-07T19:11:10.353Z,50.26
2023-04-07T19:13:36.940Z,50.30
2023-04-07T19:16:03.642Z,50.09
2023-04-07T19:18:31.836Z,50.18
2023-04-07T19:20:58.541Z,50.24
2023-04-07T19:23:25.360Z,50.24
2023-04-07T19:25:52.000Z,50.31
2023-04-07T19:28:18.669Z,50.35
2023-04-07T19:30:45.260Z,50.56
2023-04-07T19:33:12.091Z,50.53
2023-04-07T19:35:41.556Z,50.44
2023-04-07T19:38:08.095Z,50.31
2023-04-07T19:40:36.072Z,50.47
2023-04-07T19:43:02.704Z,50.44
2023-04-07T19:45:29.221Z,50.53
2023-04-07T19:47:56.875Z,50.65
2023-04-07T19:50:23.748Z,50.71
2023-04-07T19:52:53.237Z,50.64
2023-04-07T19:55:20.042Z,50.61
2023-04-07T19:57:49.999Z,50.57
2023-04-07T20:00:16.901Z,50.34
2023-04-07T20:02:43.497Z,50.33
2023-04-07T20:05:10.354Z,50.08
2023-04-07T20:07:36.965Z,49.98
2023-04-07T20:10:03.955Z,50.45
2023-04-07T20:12:30.661Z,50.25
2023-04-07T20:14:57.269Z,50.39
2023-04-07T20:17:23.834Z,50.51
2023-04-07T20:19:53.676Z,50.63
2023-04-07T20:22:20.353Z,50.66
2023-04-07T20:24:46.946Z,50.56
2023-04-07T20:27:13.392Z,50.33
2023-04-07T20:29:39.873Z,50.01
2023-04-07T20:32:06.343Z,49.87
2023-04-07T20:34:32.973Z,49.62
2023-04-07T20:36:59.477Z,49.67
2023-04-07T20:39:26.010Z,49.65
2023-04-07T20:41:52.566Z,49.34
2023-04-07T20:44:19.131Z,49.14
2023-04-07T20:46:48.740Z,48.84
2023-04-07T20:49:15.256Z,48.91
2023-04-07T20:51:41.774Z,48.60
2023-04-07T20:54:08.974Z,48.37
2023-04-07T20:56:35.570Z,48.22
2023-04-07T20:59:02.154Z,48.34
2023-04-07T21:01:28.756Z,48.17
2023-04-07T21:03:55.495Z,48.04
2023-04-07T21:06:22.263Z,47.91
2023-04-07T21:08:49.096Z,47.58
2023-04-07T21:11:15.832Z,47.58
2023-04-07T21:13:42.608Z,47.46
2023-04-07T21:16:09.169Z,47.43
2023-04-07T21:18:35.846Z,47.44
2023-04-07T21:21:02.989Z,47.24
2023-04-07T21:23:31.314Z,47.48
2023-04-07T21:26:02.448Z,47.01
2023-04-07T21:28:29.113Z,47.33
2023-04-07T21:30:56.728Z,47.20
2023-04-07T21:33:23.575Z,47.22
2023-04-07T21:35:51.235Z,47.18
2023-04-07T21:38:18.114Z,47.36
2023-04-07T21:40:45.002Z,47.12
2023-04-07T21:43:12.360Z,47.03
2023-04-07T21:45:39.364Z,47.27
2023-04-07T21:48:06.616Z,47.30
2023-04-07T21:50:33.276Z,47.11
2023-04-07T21:52:59.804Z,47.10
2023-04-07T21:55:26.479Z,47.07
2023-04-07T21:57:53.116Z,47.19
2023-04-07T22:00:20.374Z,47.14
2023-04-07T22:02:47.241Z,47.13
2023-04-07T22:05:15.009Z,47.02
2023-04-07T22:07:41.490Z,47.18
2023-04-07T22:10:08.628Z,47.27
2023-04-07T22:12:35.111Z,47.24
2023-04-07T22:15:01.633Z,47.46
2023-04-07T22:17:28.179Z,47.21
2023-04-07T22:19:54.652Z,47.11
2023-04-07T22:22:21.267Z,47.62
2023-04-07T22:24:47.735Z,47.57
2023-04-07T22:27:14.199Z,47.35
2023-04-07T22:29:40.682Z,47.70
2023-04-07T22:32:07.155Z,47.68
2023-04-07T22:34:33.722Z,47.49
2023-04-07T22:37:00.176Z,47.79
2023-04-07T22:39:26.683Z,47.57
2023-04-07T22:41:53.394Z,47.45
2023-04-07T22:44:19.841Z,47.74
2023-04-07T22:46:46.474Z,47.75
2023-04-07T22:49:13.048Z,47.68
2023-04-07T22:51:39.569Z,47.91
2023-04-07T22:54:06.078Z,47.96
2023-04-07T22:56:32.541Z,48.38
2023-04-07T22:59:05.253Z,48.18
2023-04-07T23:01:32.066Z,48.25
2023-04-07T23:03:58.620Z,48.10
2023-04-07T23:06:25.169Z,48.44
2023-04-07T23:08:51.909Z,48.63
2023-04-07T23:11:18.521Z,48.75
2023-04-07T23:13:45.047Z,48.93
2023-04-07T23:16:12.856Z,48.90
2023-04-07T23:18:40.621Z,49.11
2023-04-07T23:21:07.236Z,48.93
2023-04-07T23:23:39.080Z,49.21
2023-04-07T23:26:06.776Z,49.16
2023-04-07T23:28:33.343Z,49.14
2023-04-07T23:30:59.882Z,49.04
2023-04-07T23:33:26.415Z,49.06
2023-04-07T23:35:52.941Z,49.39
2023-04-07T23:38:19.429Z,49.28
2023-04-07T23:40:45.952Z,49.22
2023-04-07T23:43:12.365Z,49.45
2023-04-07T23:45:38.853Z,49.25
2023-04-07T23:48:05.934Z,49.32
2023-04-07T23:50:32.384Z,49.65
2023-04-07T23:52:58.828Z,49.58
2023-04-07T23:55:25.359Z,49.65
2023-04-07T23:57:51.794Z,49.54
